sensor_id;sensor_type;location;lat;lon;timestamp;P1;durP1;ratioP1;P2;durP2;ratioP2
42146;SDS011;27815;43.410;11.852;2023-09-19T00:02:46;10.45;;;6.93;;
42146;SDS011;27815;43.410;11.852;2023-09-19T00:07:03;10.00;;;7.30;;
42146;SDS011;27815;43.410;11.852;2023-09-19T00:11:07;16.77;;;7.55;;
42146;SDS011;27815;43.410;11.852;2023-09-19T00:15:10;11.30;;;5.90;;
42146;SDS011;27815;43.410;11.852;2023-09-19T00:19:13;11.45;;;6.53;;
42146;SDS011;27815;43.410;11.852;2023-09-19T00:27:25;9.50;;;6.00;;
42146;SDS011;27815;43.410;11.852;2023-09-19T00:31:31;9.80;;;6.40;;
42146;SDS011;27815;43.410;11.852;2023-09-19T00:35:34;10.65;;;6.78;;
42146;SDS011;27815;43.410;11.852;2023-09-19T00:39:40;11.60;;;6.63;;
42146;SDS011;27815;43.410;11.852;2023-09-19T00:43:43;11.65;;;6.95;;
42146;SDS011;27815;43.410;11.852;2023-09-19T00:47:48;10.38;;;6.32;;
42146;SDS011;27815;43.410;11.852;2023-09-19T00:51:56;10.27;;;6.38;;
42146;SDS011;27815;43.410;11.852;2023-09-19T00:56:08;9.65;;;7.28;;
42146;SDS011;27815;43.410;11.852;2023-09-19T01:00:17;12.93;;;7.05;;
42146;SDS011;27815;43.410;11.852;2023-09-19T01:04:29;11.40;;;7.35;;
42146;SDS011;27815;43.410;11.852;2023-09-19T01:08:34;11.88;;;7.68;;
42146;SDS011;27815;43.410;11.852;2023-09-19T01:17:20;10.32;;;7.40;;
42146;SDS011;27815;43.410;11.852;2023-09-19T01:30:09;10.05;;;7.10;;
42146;SDS011;27815;43.410;11.852;2023-09-19T01:34:17;13.05;;;7.35;;
42146;SDS011;27815;43.410;11.852;2023-09-19T01:38:24;8.85;;;6.57;;
42146;SDS011;27815;43.410;11.852;2023-09-19T01:46:40;9.32;;;7.15;;
42146;SDS011;27815;43.410;11.852;2023-09-19T01:50:58;8.13;;;7.22;;
42146;SDS011;27815;43.410;11.852;2023-09-19T01:55:12;9.82;;;7.28;;
42146;SDS011;27815;43.410;11.852;2023-09-19T01:59:21;9.00;;;7.38;;
42146;SDS011;27815;43.410;11.852;2023-09-19T02:03:36;11.15;;;6.72;;
42146;SDS011;27815;43.410;11.852;2023-09-19T02:07:42;10.35;;;7.25;;
42146;SDS011;27815;43.410;11.852;2023-09-19T02:11:52;9.48;;;6.68;;
42146;SDS011;27815;43.410;11.852;2023-09-19T02:15:56;10.10;;;6.82;;
42146;SDS011;27815;43.410;11.852;2023-09-19T02:20:01;7.93;;;6.15;;
42146;SDS011;27815;43.410;11.852;2023-09-19T02:24:18;11.18;;;7.00;;
42146;SDS011;27815;43.410;11.852;2023-09-19T02:28:27;10.48;;;6.32;;
42146;SDS011;27815;43.410;11.852;2023-09-19T02:32:41;7.88;;;7.00;;
42146;SDS011;27815;43.410;11.852;2023-09-19T02:36:46;15.07;;;7.80;;
42146;SDS011;27815;43.410;11.852;2023-09-19T02:40:51;10.18;;;7.25;;
42146;SDS011;27815;43.410;11.852;2023-09-19T02:44:56;8.98;;;6.95;;
42146;SDS011;27815;43.410;11.852;2023-09-19T02:49:03;11.52;;;7.95;;
42146;SDS011;27815;43.410;11.852;2023-09-19T02:53:12;11.15;;;7.60;;
42146;SDS011;27815;43.410;11.852;2023-09-19T02:57:21;9.98;;;8.50;;
42146;SDS011;27815;43.410;11.852;2023-09-19T03:01:27;14.35;;;9.50;;
42146;SDS011;27815;43.410;11.852;2023-09-19T03:05:35;12.00;;;8.80;;
42146;SDS011;27815;43.410;11.852;2023-09-19T03:09:46;8.90;;;7.65;;
42146;SDS011;27815;43.410;11.852;2023-09-19T03:13:57;11.85;;;7.85;;
42146;SDS011;27815;43.410;11.852;2023-09-19T03:18:02;10.30;;;7.72;;
42146;SDS011;27815;43.410;11.852;2023-09-19T03:22:11;11.32;;;7.53;;
42146;SDS011;27815;43.410;11.852;2023-09-19T03:26:18;9.80;;;7.57;;
42146;SDS011;27815;43.410;11.852;2023-09-19T03:30:24;12.57;;;8.80;;
42146;SDS011;27815;43.410;11.852;2023-09-19T03:34:28;12.50;;;8.60;;
42146;SDS011;27815;43.410;11.852;2023-09-19T03:38:34;13.88;;;8.40;;
42146;SDS011;27815;43.410;11.852;2023-09-19T03:42:45;12.45;;;8.75;;
42146;SDS011;27815;43.410;11.852;2023-09-19T03:46:53;14.23;;;8.35;;
42146;SDS011;27815;43.410;11.852;2023-09-19T03:51:22;10.75;;;7.90;;
42146;SDS011;27815;43.410;11.852;2023-09-19T03:55:26;13.07;;;8.32;;
42146;SDS011;27815;43.410;11.852;2023-09-19T03:59:30;12.60;;;7.90;;
42146;SDS011;27815;43.410;11.852;2023-09-19T04:03:39;13.63;;;8.25;;
42146;SDS011;27815;43.410;11.852;2023-09-19T04:07:52;13.15;;;7.90;;
42146;SDS011;27815;43.410;11.852;2023-09-19T04:11:56;15.00;;;8.85;;
42146;SDS011;27815;43.410;11.852;2023-09-19T04:15:59;11.50;;;8.85;;
42146;SDS011;27815;43.410;11.852;2023-09-19T04:20:03;18.40;;;11.15;;
42146;SDS011;27815;43.410;11.852;2023-09-19T04:24:13;17.80;;;10.68;;
42146;SDS011;27815;43.410;11.852;2023-09-19T04:28:26;14.88;;;9.60;;
42146;SDS011;27815;43.410;11.852;2023-09-19T04:32:35;17.00;;;9.32;;
42146;SDS011;27815;43.410;11.852;2023-09-19T04:36:40;12.48;;;8.20;;
42146;SDS011;27815;43.410;11.852;2023-09-19T04:40:45;11.50;;;7.72;;
42146;SDS011;27815;43.410;11.852;2023-09-19T04:44:49;10.75;;;8.80;;
42146;SDS011;27815;43.410;11.852;2023-09-19T04:49:01;11.48;;;9.15;;
42146;SDS011;27815;43.410;11.852;2023-09-19T04:53:07;13.82;;;9.55;;
42146;SDS011;27815;43.410;11.852;2023-09-19T04:57:15;15.90;;;9.48;;
42146;SDS011;27815;43.410;11.852;2023-09-19T05:01:30;14.93;;;9.18;;
42146;SDS011;27815;43.410;11.852;2023-09-19T05:05:39;14.43;;;9.65;;
42146;SDS011;27815;43.410;11.852;2023-09-19T05:09:44;15.15;;;9.63;;
42146;SDS011;27815;43.410;11.852;2023-09-19T05:13:54;14.80;;;9.88;;
42146;SDS011;27815;43.410;11.852;2023-09-19T05:17:57;17.35;;;10.13;;
42146;SDS011;27815;43.410;11.852;2023-09-19T05:22:00;11.60;;;9.75;;
42146;SDS011;27815;43.410;11.852;2023-09-19T05:26:03;12.57;;;8.82;;
42146;SDS011;27815;43.410;11.852;2023-09-19T05:30:08;12.32;;;10.00;;
42146;SDS011;27815;43.410;11.852;2023-09-19T05:34:14;12.15;;;8.90;;
42146;SDS011;27815;43.410;11.852;2023-09-19T05:38:34;11.30;;;9.15;;
42146;SDS011;27815;43.410;11.852;2023-09-19T05:42:47;16.05;;;9.00;;
42146;SDS011;27815;43.410;11.852;2023-09-19T05:46:51;15.48;;;9.45;;
42146;SDS011;27815;43.410;11.852;2023-09-19T05:51:05;13.02;;;8.50;;
42146;SDS011;27815;43.410;11.852;2023-09-19T05:55:10;12.60;;;8.87;;
42146;SDS011;27815;43.410;11.852;2023-09-19T05:59:19;10.95;;;8.48;;
42146;SDS011;27815;43.410;11.852;2023-09-19T06:03:37;12.65;;;9.00;;
42146;SDS011;27815;43.410;11.852;2023-09-19T06:07:44;15.02;;;9.07;;
42146;SDS011;27815;43.410;11.852;2023-09-19T06:11:49;15.35;;;8.73;;
42146;SDS011;27815;43.410;11.852;2023-09-19T06:15:55;16.60;;;9.07;;
42146;SDS011;27815;43.410;11.852;2023-09-19T06:20:02;14.88;;;9.20;;
42146;SDS011;27815;43.410;11.852;2023-09-19T06:24:14;18.30;;;9.43;;
42146;SDS011;27815;43.410;11.852;2023-09-19T06:28:17;14.43;;;9.30;;
42146;SDS011;27815;43.410;11.852;2023-09-19T06:32:30;13.27;;;9.07;;
42146;SDS011;27815;43.410;11.852;2023-09-19T06:36:37;15.07;;;10.25;;
42146;SDS011;27815;43.410;11.852;2023-09-19T06:40:40;16.30;;;9.93;;
42146;SDS011;27815;43.410;11.852;2023-09-19T06:44:49;12.63;;;9.63;;
42146;SDS011;27815;43.410;11.852;2023-09-19T06:48:55;12.87;;;10.30;;
42146;SDS011;27815;43.410;11.852;2023-09-19T06:52:58;14.52;;;9.60;;
42146;SDS011;27815;43.410;11.852;2023-09-19T06:57:02;13.35;;;9.77;;
42146;SDS011;27815;43.410;11.852;2023-09-19T07:01:06;16.90;;;10.48;;
42146;SDS011;27815;43.410;11.852;2023-09-19T07:05:10;15.20;;;10.98;;
42146;SDS011;27815;43.410;11.852;2023-09-19T07:09:14;16.15;;;9.90;;
42146;SDS011;27815;43.410;11.852;2023-09-19T07:13:21;98.75;;;49.40;;
42146;SDS011;27815;43.410;11.852;2023-09-19T07:17:25;44.33;;;25.23;;
42146;SDS011;27815;43.410;11.852;2023-09-19T07:21:30;24.38;;;15.68;;
42146;SDS011;27815;43.410;11.852;2023-09-19T07:25:35;28.42;;;17.75;;
42146;SDS011;27815;43.410;11.852;2023-09-19T07:29:41;22.40;;;13.83;;
42146;SDS011;27815;43.410;11.852;2023-09-19T07:33:45;15.40;;;11.82;;
42146;SDS011;27815;43.410;11.852;2023-09-19T07:37:48;14.35;;;10.10;;
42146;SDS011;27815;43.410;11.852;2023-09-19T07:41:53;19.65;;;12.00;;
42146;SDS011;27815;43.410;11.852;2023-09-19T07:45:56;18.73;;;12.60;;
42146;SDS011;27815;43.410;11.852;2023-09-19T07:49:59;14.93;;;12.05;;
42146;SDS011;27815;43.410;11.852;2023-09-19T07:54:04;16.50;;;12.02;;
42146;SDS011;27815;43.410;11.852;2023-09-19T07:58:07;15.52;;;12.95;;
42146;SDS011;27815;43.410;11.852;2023-09-19T08:02:10;13.90;;;11.77;;
42146;SDS011;27815;43.410;11.852;2023-09-19T08:06:18;15.95;;;12.15;;
42146;SDS011;27815;43.410;11.852;2023-09-19T08:10:22;17.73;;;12.13;;
42146;SDS011;27815;43.410;11.852;2023-09-19T08:14:27;13.02;;;10.88;;
42146;SDS011;27815;43.410;11.852;2023-09-19T08:18:31;11.35;;;10.23;;
42146;SDS011;27815;43.410;11.852;2023-09-19T08:22:34;15.18;;;9.70;;
42146;SDS011;27815;43.410;11.852;2023-09-19T08:26:37;11.98;;;7.72;;
42146;SDS011;27815;43.410;11.852;2023-09-19T08:30:39;16.70;;;7.63;;
42146;SDS011;27815;43.410;11.852;2023-09-19T08:34:43;13.38;;;7.05;;
42146;SDS011;27815;43.410;11.852;2023-09-19T08:38:46;15.32;;;7.72;;
42146;SDS011;27815;43.410;11.852;2023-09-19T08:42:52;14.63;;;7.70;;
42146;SDS011;27815;43.410;11.852;2023-09-19T08:47:07;12.65;;;7.72;;
42146;SDS011;27815;43.410;11.852;2023-09-19T08:51:51;11.85;;;7.55;;
42146;SDS011;27815;43.410;11.852;2023-09-19T08:55:48;10.18;;;7.07;;
42146;SDS011;27815;43.410;11.852;2023-09-19T08:59:56;12.25;;;6.10;;
42146;SDS011;27815;43.410;11.852;2023-09-19T09:04:00;12.25;;;5.90;;
42146;SDS011;27815;43.410;11.852;2023-09-19T09:08:05;10.85;;;5.95;;
42146;SDS011;27815;43.410;11.852;2023-09-19T09:12:12;13.55;;;5.45;;
42146;SDS011;27815;43.410;11.852;2023-09-19T09:16:15;15.88;;;5.97;;
42146;SDS011;27815;43.410;11.852;2023-09-19T09:20:22;11.15;;;5.28;;
42146;SDS011;27815;43.410;11.852;2023-09-19T09:24:26;12.73;;;5.53;;
42146;SDS011;27815;43.410;11.852;2023-09-19T09:28:44;10.35;;;5.75;;
42146;SDS011;27815;43.410;11.852;2023-09-19T09:32:48;11.68;;;5.85;;
42146;SDS011;27815;43.410;11.852;2023-09-19T09:37:14;12.30;;;6.13;;
42146;SDS011;27815;43.410;11.852;2023-09-19T09:41:21;9.20;;;5.72;;
42146;SDS011;27815;43.410;11.852;2023-09-19T09:45:40;9.23;;;5.90;;
42146;SDS011;27815;43.410;11.852;2023-09-19T09:49:50;11.15;;;5.80;;
42146;SDS011;27815;43.410;11.852;2023-09-19T09:54:09;11.95;;;5.75;;
42146;SDS011;27815;43.410;11.852;2023-09-19T09:58:20;14.57;;;6.32;;
42146;SDS011;27815;43.410;11.852;2023-09-19T10:02:39;12.38;;;6.40;;
42146;SDS011;27815;43.410;11.852;2023-09-19T10:06:44;10.52;;;6.38;;
42146;SDS011;27815;43.410;11.852;2023-09-19T10:10:50;9.35;;;6.07;;
42146;SDS011;27815;43.410;11.852;2023-09-19T10:14:59;11.10;;;6.15;;
42146;SDS011;27815;43.410;11.852;2023-09-19T10:19:04;15.98;;;7.18;;
42146;SDS011;27815;43.410;11.852;2023-09-19T10:23:11;7.28;;;6.22;;
42146;SDS011;27815;43.410;11.852;2023-09-19T10:27:15;11.75;;;7.40;;
42146;SDS011;27815;43.410;11.852;2023-09-19T10:31:19;9.65;;;6.00;;
42146;SDS011;27815;43.410;11.852;2023-09-19T10:35:26;11.27;;;5.40;;
42146;SDS011;27815;43.410;11.852;2023-09-19T10:39:30;8.60;;;5.68;;
42146;SDS011;27815;43.410;11.852;2023-09-19T10:43:34;7.47;;;4.80;;
42146;SDS011;27815;43.410;11.852;2023-09-19T10:47:40;9.95;;;4.90;;
42146;SDS011;27815;43.410;11.852;2023-09-19T10:51:43;9.30;;;4.85;;
42146;SDS011;27815;43.410;11.852;2023-09-19T10:55:50;9.40;;;5.18;;
42146;SDS011;27815;43.410;11.852;2023-09-19T11:00:04;8.85;;;4.85;;
42146;SDS011;27815;43.410;11.852;2023-09-19T11:04:34;9.63;;;4.45;;
42146;SDS011;27815;43.410;11.852;2023-09-19T11:08:57;10.18;;;4.88;;
42146;SDS011;27815;43.410;11.852;2023-09-19T11:17:39;11.93;;;4.53;;
42146;SDS011;27815;43.410;11.852;2023-09-19T11:21:54;11.13;;;4.80;;
42146;SDS011;27815;43.410;11.852;2023-09-19T11:25:57;7.68;;;4.25;;
42146;SDS011;27815;43.410;11.852;2023-09-19T11:34:41;10.95;;;4.45;;
42146;SDS011;27815;43.410;11.852;2023-09-19T11:42:52;10.63;;;4.28;;
42146;SDS011;27815;43.410;11.852;2023-09-19T11:47:00;8.60;;;3.70;;
42146;SDS011;27815;43.410;11.852;2023-09-19T11:51:11;10.48;;;4.07;;
42146;SDS011;27815;43.410;11.852;2023-09-19T11:55:27;9.82;;;4.35;;
42146;SDS011;27815;43.410;11.852;2023-09-19T11:59:37;8.63;;;3.92;;
42146;SDS011;27815;43.410;11.852;2023-09-19T12:03:42;6.40;;;3.70;;
42146;SDS011;27815;43.410;11.852;2023-09-19T12:07:50;11.13;;;3.67;;
42146;SDS011;27815;43.410;11.852;2023-09-19T12:11:53;6.80;;;3.67;;
42146;SDS011;27815;43.410;11.852;2023-09-19T12:15:56;8.73;;;3.70;;
42146;SDS011;27815;43.410;11.852;2023-09-19T12:20:02;6.65;;;2.90;;
42146;SDS011;27815;43.410;11.852;2023-09-19T12:24:15;8.52;;;2.90;;
42146;SDS011;27815;43.410;11.852;2023-09-19T12:28:21;7.47;;;3.15;;
42146;SDS011;27815;43.410;11.852;2023-09-19T12:32:34;9.93;;;2.90;;
42146;SDS011;27815;43.410;11.852;2023-09-19T12:36:38;8.20;;;2.80;;
42146;SDS011;27815;43.410;11.852;2023-09-19T12:40:41;9.90;;;2.85;;
42146;SDS011;27815;43.410;11.852;2023-09-19T12:44:45;8.05;;;2.38;;
42146;SDS011;27815;43.410;11.852;2023-09-19T12:53:25;8.45;;;2.40;;
42146;SDS011;27815;43.410;11.852;2023-09-19T12:57:31;5.68;;;2.35;;
42146;SDS011;27815;43.410;11.852;2023-09-19T13:01:38;5.05;;;2.47;;
42146;SDS011;27815;43.410;11.852;2023-09-19T13:06:13;5.10;;;2.30;;
42146;SDS011;27815;43.410;11.852;2023-09-19T13:10:28;6.30;;;2.30;;
42146;SDS011;27815;43.410;11.852;2023-09-19T13:15:07;7.60;;;2.17;;
42146;SDS011;27815;43.410;11.852;2023-09-19T13:19:37;4.85;;;2.40;;
42146;SDS011;27815;43.410;11.852;2023-09-19T13:23:45;7.88;;;2.17;;
42146;SDS011;27815;43.410;11.852;2023-09-19T13:28:07;8.90;;;2.45;;
42146;SDS011;27815;43.410;11.852;2023-09-19T13:32:11;8.15;;;2.10;;
42146;SDS011;27815;43.410;11.852;2023-09-19T13:36:15;6.72;;;1.83;;
42146;SDS011;27815;43.410;11.852;2023-09-19T13:44:25;6.05;;;1.80;;
42146;SDS011;27815;43.410;11.852;2023-09-19T13:48:35;6.68;;;1.88;;
42146;SDS011;27815;43.410;11.852;2023-09-19T13:52:39;5.78;;;2.10;;
42146;SDS011;27815;43.410;11.852;2023-09-19T13:56:43;5.57;;;2.20;;
42146;SDS011;27815;43.410;11.852;2023-09-19T14:00:53;6.57;;;2.00;;
42146;SDS011;27815;43.410;11.852;2023-09-19T14:05:05;5.53;;;1.70;;
42146;SDS011;27815;43.410;11.852;2023-09-19T14:09:13;7.47;;;2.08;;
42146;SDS011;27815;43.410;11.852;2023-09-19T14:13:22;5.22;;;2.10;;
42146;SDS011;27815;43.410;11.852;2023-09-19T14:17:36;7.32;;;2.17;;
42146;SDS011;27815;43.410;11.852;2023-09-19T14:22:01;5.85;;;2.03;;
42146;SDS011;27815;43.410;11.852;2023-09-19T14:26:13;5.40;;;1.85;;
42146;SDS011;27815;43.410;11.852;2023-09-19T14:30:21;4.20;;;1.60;;
42146;SDS011;27815;43.410;11.852;2023-09-19T14:34:27;4.57;;;1.70;;
42146;SDS011;27815;43.410;11.852;2023-09-19T14:38:31;5.65;;;1.80;;
42146;SDS011;27815;43.410;11.852;2023-09-19T14:42:38;3.63;;;1.80;;
42146;SDS011;27815;43.410;11.852;2023-09-19T14:46:42;5.78;;;1.98;;
42146;SDS011;27815;43.410;11.852;2023-09-19T14:50:48;7.45;;;2.22;;
42146;SDS011;27815;43.410;11.852;2023-09-19T14:54:53;5.20;;;1.73;;
42146;SDS011;27815;43.410;11.852;2023-09-19T14:58:56;7.40;;;2.00;;
42146;SDS011;27815;43.410;11.852;2023-09-19T15:03:04;4.22;;;2.05;;
42146;SDS011;27815;43.410;11.852;2023-09-19T15:07:14;4.55;;;1.52;;
42146;SDS011;27815;43.410;11.852;2023-09-19T15:11:23;5.90;;;1.80;;
42146;SDS011;27815;43.410;11.852;2023-09-19T15:15:39;4.10;;;1.88;;
42146;SDS011;27815;43.410;11.852;2023-09-19T15:19:45;4.45;;;1.45;;
42146;SDS011;27815;43.410;11.852;2023-09-19T15:23:51;3.92;;;1.65;;
42146;SDS011;27815;43.410;11.852;2023-09-19T15:28:01;6.35;;;2.38;;
42146;SDS011;27815;43.410;11.852;2023-09-19T15:32:10;5.93;;;1.88;;
42146;SDS011;27815;43.410;11.852;2023-09-19T15:36:14;5.10;;;1.92;;
42146;SDS011;27815;43.410;11.852;2023-09-19T15:40:19;6.40;;;2.00;;
42146;SDS011;27815;43.410;11.852;2023-09-19T15:44:27;5.05;;;1.77;;
42146;SDS011;27815;43.410;11.852;2023-09-19T15:48:30;6.53;;;2.03;;
42146;SDS011;27815;43.410;11.852;2023-09-19T15:52:33;7.80;;;2.42;;
42146;SDS011;27815;43.410;11.852;2023-09-19T15:56:36;6.68;;;2.40;;
42146;SDS011;27815;43.410;11.852;2023-09-19T16:00:40;5.20;;;2.53;;
42146;SDS011;27815;43.410;11.852;2023-09-19T16:04:43;6.00;;;2.33;;
42146;SDS011;27815;43.410;11.852;2023-09-19T16:08:47;6.25;;;2.47;;
42146;SDS011;27815;43.410;11.852;2023-09-19T16:12:51;5.03;;;2.20;;
42146;SDS011;27815;43.410;11.852;2023-09-19T16:16:55;6.05;;;2.75;;
42146;SDS011;27815;43.410;11.852;2023-09-19T16:21:03;7.38;;;3.03;;
42146;SDS011;27815;43.410;11.852;2023-09-19T16:25:07;5.32;;;2.58;;
42146;SDS011;27815;43.410;11.852;2023-09-19T16:29:13;9.88;;;2.63;;
42146;SDS011;27815;43.410;11.852;2023-09-19T16:33:17;4.43;;;2.33;;
42146;SDS011;27815;43.410;11.852;2023-09-19T16:37:20;6.80;;;2.55;;
42146;SDS011;27815;43.410;11.852;2023-09-19T16:41:23;9.02;;;2.72;;
42146;SDS011;27815;43.410;11.852;2023-09-19T16:45:26;6.95;;;2.42;;
42146;SDS011;27815;43.410;11.852;2023-09-19T16:49:30;7.43;;;2.30;;
42146;SDS011;27815;43.410;11.852;2023-09-19T16:53:33;6.28;;;2.35;;
42146;SDS011;27815;43.410;11.852;2023-09-19T16:57:38;5.97;;;2.30;;
42146;SDS011;27815;43.410;11.852;2023-09-19T17:01:41;7.15;;;2.20;;
42146;SDS011;27815;43.410;11.852;2023-09-19T17:05:44;6.00;;;2.30;;
42146;SDS011;27815;43.410;11.852;2023-09-19T17:09:49;16.65;;;2.67;;
42146;SDS011;27815;43.410;11.852;2023-09-19T17:13:53;4.93;;;2.20;;
42146;SDS011;27815;43.410;11.852;2023-09-19T17:17:56;6.35;;;2.00;;
42146;SDS011;27815;43.410;11.852;2023-09-19T17:22:00;7.50;;;2.30;;
42146;SDS011;27815;43.410;11.852;2023-09-19T17:26:06;6.95;;;2.00;;
42146;SDS011;27815;43.410;11.852;2023-09-19T17:30:16;7.35;;;2.10;;
42146;SDS011;27815;43.410;11.852;2023-09-19T17:34:20;5.85;;;2.30;;
42146;SDS011;27815;43.410;11.852;2023-09-19T17:38:23;6.82;;;2.33;;
42146;SDS011;27815;43.410;11.852;2023-09-19T17:42:26;4.43;;;1.70;;
42146;SDS011;27815;43.410;11.852;2023-09-19T17:46:29;7.82;;;2.35;;
42146;SDS011;27815;43.410;11.852;2023-09-19T17:50:32;6.32;;;2.20;;
42146;SDS011;27815;43.410;11.852;2023-09-19T17:54:35;7.30;;;2.65;;
42146;SDS011;27815;43.410;11.852;2023-09-19T17:58:38;7.63;;;2.47;;
42146;SDS011;27815;43.410;11.852;2023-09-19T18:02:42;6.88;;;2.53;;
42146;SDS011;27815;43.410;11.852;2023-09-19T18:06:45;6.93;;;2.30;;
42146;SDS011;27815;43.410;11.852;2023-09-19T18:10:51;5.03;;;2.05;;
42146;SDS011;27815;43.410;11.852;2023-09-19T18:14:55;4.20;;;1.98;;
42146;SDS011;27815;43.410;11.852;2023-09-19T18:18:58;13.10;;;3.28;;
42146;SDS011;27815;43.410;11.852;2023-09-19T18:23:02;6.43;;;2.08;;
42146;SDS011;27815;43.410;11.852;2023-09-19T18:27:08;7.97;;;2.10;;
42146;SDS011;27815;43.410;11.852;2023-09-19T18:31:11;6.38;;;1.73;;
42146;SDS011;27815;43.410;11.852;2023-09-19T18:35:14;6.72;;;2.63;;
42146;SDS011;27815;43.410;11.852;2023-09-19T18:39:17;5.00;;;1.67;;
42146;SDS011;27815;43.410;11.852;2023-09-19T18:43:22;6.22;;;2.00;;
42146;SDS011;27815;43.410;11.852;2023-09-19T18:47:25;5.45;;;2.03;;
42146;SDS011;27815;43.410;11.852;2023-09-19T18:51:30;5.93;;;2.03;;
42146;SDS011;27815;43.410;11.852;2023-09-19T18:55:35;7.15;;;2.10;;
42146;SDS011;27815;43.410;11.852;2023-09-19T18:59:39;6.18;;;2.30;;
42146;SDS011;27815;43.410;11.852;2023-09-19T19:03:42;5.30;;;2.30;;
42146;SDS011;27815;43.410;11.852;2023-09-19T19:07:48;2.80;;;1.60;;
42146;SDS011;27815;43.410;11.852;2023-09-19T19:11:51;7.88;;;2.53;;
42146;SDS011;27815;43.410;11.852;2023-09-19T19:15:57;4.78;;;1.83;;
42146;SDS011;27815;43.410;11.852;2023-09-19T19:20:03;5.28;;;2.17;;
42146;SDS011;27815;43.410;11.852;2023-09-19T19:24:09;7.82;;;2.15;;
42146;SDS011;27815;43.410;11.852;2023-09-19T19:28:12;4.57;;;1.77;;
42146;SDS011;27815;43.410;11.852;2023-09-19T19:32:16;6.40;;;1.98;;
42146;SDS011;27815;43.410;11.852;2023-09-19T19:36:19;7.05;;;2.35;;
42146;SDS011;27815;43.410;11.852;2023-09-19T19:40:25;6.77;;;2.40;;
42146;SDS011;27815;43.410;11.852;2023-09-19T19:44:27;6.13;;;2.28;;
42146;SDS011;27815;43.410;11.852;2023-09-19T19:48:30;4.47;;;1.92;;
42146;SDS011;27815;43.410;11.852;2023-09-19T19:52:33;6.22;;;2.03;;
42146;SDS011;27815;43.410;11.852;2023-09-19T19:56:36;6.90;;;2.10;;
42146;SDS011;27815;43.410;11.852;2023-09-19T20:00:41;4.80;;;1.77;;
42146;SDS011;27815;43.410;11.852;2023-09-19T20:04:48;3.90;;;1.70;;
42146;SDS011;27815;43.410;11.852;2023-09-19T20:08:52;9.02;;;2.28;;
42146;SDS011;27815;43.410;11.852;2023-09-19T20:12:55;5.57;;;2.60;;
42146;SDS011;27815;43.410;11.852;2023-09-19T20:16:58;8.25;;;3.10;;
42146;SDS011;27815;43.410;11.852;2023-09-19T20:21:07;8.13;;;2.67;;
42146;SDS011;27815;43.410;11.852;2023-09-19T20:25:16;7.20;;;2.50;;
42146;SDS011;27815;43.410;11.852;2023-09-19T20:29:20;6.45;;;2.42;;
42146;SDS011;27815;43.410;11.852;2023-09-19T20:33:25;6.35;;;2.17;;
42146;SDS011;27815;43.410;11.852;2023-09-19T20:37:29;5.43;;;2.10;;
42146;SDS011;27815;43.410;11.852;2023-09-19T20:41:32;6.05;;;2.20;;
42146;SDS011;27815;43.410;11.852;2023-09-19T20:45:35;8.75;;;2.50;;
42146;SDS011;27815;43.410;11.852;2023-09-19T20:49:44;4.43;;;2.28;;
42146;SDS011;27815;43.410;11.852;2023-09-19T20:53:53;5.55;;;2.03;;
42146;SDS011;27815;43.410;11.852;2023-09-19T20:57:57;5.55;;;3.05;;
42146;SDS011;27815;43.410;11.852;2023-09-19T21:02:02;5.03;;;2.13;;
42146;SDS011;27815;43.410;11.852;2023-09-19T21:06:09;4.75;;;2.10;;
42146;SDS011;27815;43.410;11.852;2023-09-19T21:10:17;8.50;;;2.40;;
42146;SDS011;27815;43.410;11.852;2023-09-19T21:14:20;5.07;;;2.00;;
42146;SDS011;27815;43.410;11.852;2023-09-19T21:18:23;7.03;;;2.05;;
42146;SDS011;27815;43.410;11.852;2023-09-19T21:22:26;5.65;;;2.33;;
42146;SDS011;27815;43.410;11.852;2023-09-19T21:26:37;4.97;;;2.03;;
42146;SDS011;27815;43.410;11.852;2023-09-19T21:30:42;7.57;;;2.10;;
42146;SDS011;27815;43.410;11.852;2023-09-19T21:34:48;4.43;;;2.22;;
42146;SDS011;27815;43.410;11.852;2023-09-19T21:38:58;4.45;;;1.90;;
42146;SDS011;27815;43.410;11.852;2023-09-19T21:43:02;6.40;;;2.58;;
42146;SDS011;27815;43.410;11.852;2023-09-19T21:47:07;6.17;;;2.10;;
42146;SDS011;27815;43.410;11.852;2023-09-19T21:51:12;7.43;;;2.50;;
42146;SDS011;27815;43.410;11.852;2023-09-19T21:55:15;6.93;;;2.30;;
42146;SDS011;27815;43.410;11.852;2023-09-19T21:59:18;5.75;;;2.28;;
42146;SDS011;27815;43.410;11.852;2023-09-19T22:03:22;6.65;;;2.25;;
42146;SDS011;27815;43.410;11.852;2023-09-19T22:07:28;7.35;;;2.40;;
42146;SDS011;27815;43.410;11.852;2023-09-19T22:11:32;5.15;;;2.10;;
42146;SDS011;27815;43.410;11.852;2023-09-19T22:15:36;4.38;;;2.28;;
42146;SDS011;27815;43.410;11.852;2023-09-19T22:19:44;5.63;;;2.30;;
42146;SDS011;27815;43.410;11.852;2023-09-19T22:23:48;8.70;;;2.45;;
42146;SDS011;27815;43.410;11.852;2023-09-19T22:27:56;5.32;;;1.90;;
42146;SDS011;27815;43.410;11.852;2023-09-19T22:31:59;6.72;;;2.40;;
42146;SDS011;27815;43.410;11.852;2023-09-19T22:36:07;5.30;;;2.22;;
42146;SDS011;27815;43.410;11.852;2023-09-19T22:40:10;5.72;;;2.08;;
42146;SDS011;27815;43.410;11.852;2023-09-19T22:44:19;5.05;;;2.42;;
42146;SDS011;27815;43.410;11.852;2023-09-19T22:48:24;8.20;;;2.90;;
42146;SDS011;27815;43.410;11.852;2023-09-19T22:52:31;7.13;;;2.70;;
42146;SDS011;27815;43.410;11.852;2023-09-19T22:56:38;6.18;;;2.03;;
42146;SDS011;27815;43.410;11.852;2023-09-19T23:00:43;6.93;;;2.53;;
42146;SDS011;27815;43.410;11.852;2023-09-19T23:04:48;4.05;;;2.25;;
42146;SDS011;27815;43.410;11.852;2023-09-19T23:08:51;4.95;;;2.30;;
42146;SDS011;27815;43.410;11.852;2023-09-19T23:12:55;10.48;;;2.80;;
42146;SDS011;27815;43.410;11.852;2023-09-19T23:16:59;5.32;;;2.35;;
42146;SDS011;27815;43.410;11.852;2023-09-19T23:21:03;8.30;;;2.55;;
42146;SDS011;27815;43.410;11.852;2023-09-19T23:25:14;10.40;;;3.30;;
42146;SDS011;27815;43.410;11.852;2023-09-19T23:29:28;5.18;;;2.85;;
42146;SDS011;27815;43.410;11.852;2023-09-19T23:33:31;5.65;;;2.72;;
42146;SDS011;27815;43.410;11.852;2023-09-19T23:37:34;4.55;;;2.40;;
42146;SDS011;27815;43.410;11.852;2023-09-19T23:41:37;8.30;;;3.10;;
42146;SDS011;27815;43.410;11.852;2023-09-19T23:45:40;4.68;;;2.35;;
42146;SDS011;27815;43.410;11.852;2023-09-19T23:49:44;4.47;;;2.17;;
42146;SDS011;27815;43.410;11.852;2023-09-19T23:53:50;4.60;;;2.38;;
42146;SDS011;27815;43.410;11.852;2023-09-19T23:57:53;5.18;;;2.30;;
